Time;durP1;ratioP1;P1;durP2;ratioP2;P2;SDS_P1;SDS_P2;PMS_P1;PMS_P2;Temp;Humidity;BMP_temperature;BMP_pressure;BME280_temperature;BME280_humidity;BME280_pressure;Samples;Min_cycle;Max_cycle;Signal;HPM_P1;HPM_P2
2022/03/20 13:14:18;;;;;;;23.77;17.03;;;;;;;;;;6183265;23;20056;-93
2022/03/20 13:17:02;;;;;;;22.45;17.92;;;;;;;;;;6182020;23;20092;-92
2022/03/20 13:19:37;;;;;;;22.58;16.90;;;;;;;;;;6235428;23;19985;-94
2022/03/20 13:22:08;;;;;;;24.60;17.60;;;;;;;;;;6181891;23;20005;-91
2022/03/20 13:24:36;;;;;;;20.73;17.67;;;;;;;;;;6184912;23;19996;-92
2022/03/20 13:27:05;;;;;;;22.27;17.30;;;;;;;;;;6187033;23;20052;-93
2022/03/20 13:29:31;;;;;;;25.13;18.30;;;;;;;;;;6187426;23;20001;-93
2022/03/20 13:32:06;;;;;;;20.77;17.23;;;;;;;;;;6212645;23;19989;-92
2022/03/20 13:34:33;;;;;;;20.20;16.55;;;;;;;;;;6187912;23;20017;-93
2022/03/20 13:37:10;;;;;;;24.10;17.00;;;;;;;;;;6186530;23;20009;-92
2022/03/20 13:39:37;;;;;;;21.52;17.08;;;;;;;;;;6183767;23;20013;-93
2022/03/20 13:42:22;;;;;;;22.38;17.58;;;;;;;;;;6212416;23;20081;-93
2022/03/20 13:44:52;;;;;;;21.13;17.38;;;;;;;;;;6187742;23;20008;-92
2022/03/20 13:47:18;;;;;;;23.25;17.67;;;;;;;;;;6215603;23;20000;-94
2022/03/20 13:49:44;;;;;;;25.75;17.90;;;;;;;;;;6209830;23;20009;-92
2022/03/20 13:52:31;;;;;;;23.55;18.00;;;;;;;;;;6201529;23;20005;-93
2022/03/20 13:55:19;;;;;;;24.77;18.23;;;;;;;;;;6169967;23;20088;-91
2022/03/20 13:57:53;;;;;;;26.45;18.77;;;;;;;;;;6165907;23;20005;-90
2022/03/20 14:00:20;;;;;;;27.60;18.45;;;;;;;;;;6194830;23;20008;-93
2022/03/20 14:02:50;;;;;;;24.02;18.25;;;;;;;;;;6168396;23;20424;-92
2022/03/20 14:05:24;;;;;;;23.17;17.08;;;;;;;;;;6172913;23;20031;-91
2022/03/20 14:08:04;;;;;;;24.10;17.67;;;;;;;;;;6172405;23;20029;-93
2022/03/20 14:10:30;;;;;;;24.98;18.48;;;;;;;;;;6200696;23;20060;-93
2022/03/20 14:13:19;;;;;;;27.77;18.13;;;;;;;;;;6171885;23;20024;-92
2022/03/20 14:15:58;;;;;;;25.73;18.03;;;;;;;;;;6170233;23;20001;-93
2022/03/20 14:18:24;;;;;;;25.10;19.07;;;;;;;;;;6170620;23;20012;-91
2022/03/20 14:20:50;;;;;;;22.13;16.95;;;;;;;;;;6175590;23;20005;-91
2022/03/20 14:23:18;;;;;;;25.52;18.98;;;;;;;;;;6193043;23;20039;-91
2022/03/20 14:25:45;;;;;;;27.00;19.35;;;;;;;;;;6166557;23;20009;-91
2022/03/20 14:28:12;;;;;;;28.33;19.08;;;;;;;;;;6191863;23;20091;-90
2022/03/20 14:41:46;;;;;;;24.73;17.95;;;;;;;;;;6192527;23;20039;-92
2022/03/20 14:44:19;;;;;;;25.40;18.33;;;;;;;;;;6163190;23;20033;-92
2022/03/20 14:46:48;;;;;;;24.25;17.67;;;;;;;;;;6162343;23;20009;-92
2022/03/20 14:49:16;;;;;;;30.65;19.52;;;;;;;;;;6187873;23;20032;-93
2022/03/20 14:51:42;;;;;;;28.17;20.10;;;;;;;;;;6161361;23;20012;-92
2022/03/20 14:54:10;;;;;;;26.80;18.77;;;;;;;;;;6187239;23;20016;-93
2022/03/20 14:56:37;;;;;;;30.98;19.67;;;;;;;;;;6161547;23;20028;-93
2022/03/20 14:59:04;;;;;;;31.88;19.10;;;;;;;;;;6161887;23;20011;-91
2022/03/20 15:01:30;;;;;;;27.35;19.98;;;;;;;;;;6161654;23;20009;-94
2022/03/20 15:03:56;;;;;;;26.02;18.67;;;;;;;;;;6161504;23;20019;-94
2022/03/20 15:06:24;;;;;;;24.42;17.27;;;;;;;;;;6163146;23;20447;-92
2022/03/20 15:11:37;;;;;;;23.75;16.88;;;;;;;;;;6190276;23;20012;-94
2022/03/20 15:14:04;;;;;;;29.67;18.77;;;;;;;;;;6161236;23;20016;-94
2022/03/20 15:16:30;;;;;;;26.60;17.55;;;;;;;;;;6164116;23;20001;-92
2022/03/20 15:18:59;;;;;;;25.90;18.55;;;;;;;;;;6163071;23;20016;-93
2022/03/20 15:21:26;;;;;;;24.35;17.98;;;;;;;;;;6191098;23;20005;-93
2022/03/20 15:23:52;;;;;;;24.45;17.13;;;;;;;;;;6162229;23;20001;-92
2022/03/20 15:26:18;;;;;;;22.00;16.67;;;;;;;;;;6189795;23;20003;-93
2022/03/20 15:28:44;;;;;;;21.83;16.40;;;;;;;;;;6161002;23;20084;-95
2022/03/20 15:31:10;;;;;;;24.63;17.90;;;;;;;;;;6161050;23;20016;-93
2022/03/20 15:33:40;;;;;;;23.50;17.05;;;;;;;;;;6161970;23;20136;-93
2022/03/20 15:36:06;;;;;;;22.33;15.73;;;;;;;;;;6188668;23;20009;-94
2022/03/20 15:38:31;;;;;;;23.35;17.80;;;;;;;;;;6161617;23;20040;-94
2022/03/20 15:40:57;;;;;;;22.83;15.55;;;;;;;;;;6161821;23;20348;-92
2022/03/20 15:43:22;;;;;;;24.20;16.60;;;;;;;;;;6162816;23;20009;-91
2022/03/20 15:45:48;;;;;;;23.77;15.98;;;;;;;;;;6161276;23;20005;-92
2022/03/20 15:48:13;;;;;;;23.50;17.42;;;;;;;;;;6188510;23;20340;-90
2022/03/20 15:50:40;;;;;;;21.63;15.30;;;;;;;;;;6162897;23;20008;-91
2022/03/20 15:53:05;;;;;;;19.73;14.70;;;;;;;;;;6162519;23;20013;-91
2022/03/20 15:55:30;;;;;;;22.58;15.85;;;;;;;;;;6163020;23;20028;-89
2022/03/20 15:57:56;;;;;;;23.17;17.77;;;;;;;;;;6163224;23;20324;-90
2022/03/20 16:00:22;;;;;;;20.88;15.43;;;;;;;;;;6163016;23;20023;-91
2022/03/20 16:02:47;;;;;;;42.28;28.42;;;;;;;;;;6189791;23;20063;-95
2022/03/20 16:05:13;;;;;;;21.17;15.95;;;;;;;;;;6162332;23;20487;-93
2022/03/20 16:07:38;;;;;;;22.88;15.98;;;;;;;;;;6161204;23;20001;-95
2022/03/20 16:10:04;;;;;;;23.02;16.70;;;;;;;;;;6161735;23;20020;-95
2022/03/20 16:12:29;;;;;;;24.90;19.23;;;;;;;;;;6161860;23;20005;-94
2022/03/20 16:14:55;;;;;;;22.20;16.30;;;;;;;;;;6163623;23;20017;-95
2022/03/20 16:17:21;;;;;;;17.33;14.15;;;;;;;;;;6164115;23;20435;-95
2022/03/20 18:29:48;;;;;;;23.80;18.38;;;;;;;;;;6219458;23;20040;-87
2022/03/20 18:32:14;;;;;;;23.48;16.55;;;;;;;;;;6219396;23;20013;-88
2022/03/20 18:34:40;;;;;;;22.38;15.38;;;;;;;;;;6218913;23;20331;-86
2022/03/20 18:37:07;;;;;;;25.67;16.63;;;;;;;;;;6218469;23;20004;-89
2022/03/20 18:39:34;;;;;;;26.42;18.15;;;;;;;;;;6190935;23;20004;-87
2022/03/20 18:42:01;;;;;;;23.83;17.10;;;;;;;;;;6190886;23;20121;-88
2022/03/20 18:44:26;;;;;;;21.55;15.88;;;;;;;;;;6191256;23;20004;-87
2022/03/20 18:46:52;;;;;;;22.35;15.48;;;;;;;;;;6190654;23;20103;-88
2022/03/20 18:49:17;;;;;;;20.63;15.02;;;;;;;;;;6190744;23;20432;-88
2022/03/20 18:51:42;;;;;;;22.00;15.68;;;;;;;;;;6190727;23;20008;-89
2022/03/20 18:54:08;;;;;;;22.63;15.43;;;;;;;;;;6190410;23;20062;-88
2022/03/20 18:56:33;;;;;;;23.58;16.77;;;;;;;;;;6190885;23;20000;-89
2022/03/20 18:58:59;;;;;;;22.20;16.38;;;;;;;;;;6191002;23;20008;-90
2022/03/20 19:01:24;;;;;;;28.95;20.85;;;;;;;;;;6217577;23;20054;-87
2022/03/20 19:03:50;;;;;;;26.27;17.75;;;;;;;;;;6190625;23;20443;-88
2022/03/20 19:06:15;;;;;;;37.80;24.95;;;;;;;;;;6190847;23;20087;-88
2022/03/20 19:08:41;;;;;;;27.75;18.63;;;;;;;;;;6190775;23;20013;-88
2022/03/20 19:11:07;;;;;;;19.05;14.27;;;;;;;;;;6190705;23;20009;-88
2022/03/20 19:13:33;;;;;;;22.05;15.48;;;;;;;;;;6217147;23;20027;-86
2022/03/20 19:15:58;;;;;;;19.25;14.27;;;;;;;;;;6190461;23;20008;-86
2022/03/20 19:18:24;;;;;;;21.45;14.13;;;;;;;;;;6217378;23;20011;-87
2022/03/20 19:20:50;;;;;;;20.48;14.60;;;;;;;;;;6190320;23;20031;-87
2022/03/20 19:23:16;;;;;;;21.50;15.02;;;;;;;;;;6190423;23;20004;-90
2022/03/20 19:25:42;;;;;;;18.08;13.52;;;;;;;;;;6216780;23;20412;-89
2022/03/20 19:28:09;;;;;;;18.05;14.10;;;;;;;;;;6186709;23;20015;-89
2022/03/20 19:30:35;;;;;;;17.80;13.73;;;;;;;;;;6160690;23;20325;-90
2022/03/20 19:33:00;;;;;;;19.23;14.20;;;;;;;;;;6161724;23;20336;-90
2022/03/20 19:40:54;;;;;;;20.63;13.48;;;;;;;;;;6187447;23;20079;-91
2022/03/20 19:43:22;;;;;;;19.30;13.85;;;;;;;;;;6161367;23;20408;-90
2022/03/20 19:45:52;;;;;;;17.20;13.73;;;;;;;;;;6162337;23;20005;-90
2022/03/20 19:48:18;;;;;;;23.65;16.95;;;;;;;;;;6161059;23;20009;-90
2022/03/20 19:50:44;;;;;;;19.55;15.25;;;;;;;;;;6161354;23;20009;-91
2022/03/20 19:53:09;;;;;;;16.98;12.75;;;;;;;;;;6161245;23;20023;-90
2022/03/20 19:55:35;;;;;;;19.00;12.88;;;;;;;;;;6160193;23;20032;-88
2022/03/20 19:58:03;;;;;;;17.83;13.27;;;;;;;;;;6184720;23;20016;-87
2022/03/20 20:00:29;;;;;;;16.95;12.63;;;;;;;;;;6186451;23;20012;-87
2022/03/20 20:02:55;;;;;;;21.08;13.73;;;;;;;;;;6160209;23;20000;-87
2022/03/20 20:05:20;;;;;;;18.73;13.65;;;;;;;;;;6160160;23;20115;-87
2022/03/20 20:07:46;;;;;;;20.73;13.73;;;;;;;;;;6160488;23;20009;-87
2022/03/20 20:10:12;;;;;;;17.80;13.23;;;;;;;;;;6164029;23;20009;-86
2022/03/20 20:12:39;;;;;;;18.13;13.75;;;;;;;;;;6194164;23;20001;-86
2022/03/20 20:15:05;;;;;;;16.85;12.90;;;;;;;;;;6193911;23;20076;-86
2022/03/20 20:17:31;;;;;;;19.27;14.32;;;;;;;;;;6194695;23;20012;-86
2022/03/20 20:20:01;;;;;;;18.85;14.27;;;;;;;;;;6195390;23;19997;-86
2022/03/20 20:22:27;;;;;;;19.95;14.88;;;;;;;;;;6194722;23;20023;-86
2022/03/20 20:24:53;;;;;;;20.65;14.23;;;;;;;;;;6168173;23;20057;-86
2022/03/20 20:27:20;;;;;;;20.83;14.88;;;;;;;;;;6195005;23;20028;-85
2022/03/20 20:29:46;;;;;;;22.17;16.00;;;;;;;;;;6168405;23;20072;-86
2022/03/20 20:32:13;;;;;;;21.83;15.05;;;;;;;;;;6187341;23;20483;-86
2022/03/20 20:34:39;;;;;;;18.58;13.88;;;;;;;;;;6160481;23;20005;-86
2022/03/20 20:37:06;;;;;;;19.70;13.82;;;;;;;;;;6187185;23;20012;-89
2022/03/20 20:39:33;;;;;;;19.15;13.70;;;;;;;;;;6161484;23;20001;-88
2022/03/20 20:41:59;;;;;;;18.23;13.60;;;;;;;;;;6186968;23;20001;-85
2022/03/20 20:44:26;;;;;;;19.92;14.02;;;;;;;;;;6187002;23;20031;-87
2022/03/20 20:46:52;;;;;;;17.13;12.82;;;;;;;;;;6160782;23;20005;-86
2022/03/20 20:49:18;;;;;;;17.08;13.20;;;;;;;;;;6160995;23;20428;-87
2022/03/20 20:51:49;;;;;;;16.70;13.20;;;;;;;;;;6189042;23;20008;-89
2022/03/20 20:54:15;;;;;;;19.95;13.05;;;;;;;;;;6162339;23;20329;-89
2022/03/20 20:56:42;;;;;;;19.33;13.50;;;;;;;;;;6189695;23;20005;-88
2022/03/20 20:59:09;;;;;;;18.10;12.32;;;;;;;;;;6163301;23;20009;-87
2022/03/20 21:01:34;;;;;;;17.35;12.35;;;;;;;;;;6163399;23;20009;-89
2022/03/20 21:04:00;;;;;;;18.58;13.00;;;;;;;;;;6162965;23;20036;-89
2022/03/20 21:06:31;;;;;;;18.65;12.30;;;;;;;;;;6163009;23;20005;-86
2022/03/20 21:11:48;;;;;;;19.05;12.63;;;;;;;;;;6189615;23;20332;-88
2022/03/20 21:14:17;;;;;;;18.65;12.75;;;;;;;;;;6162293;23;20095;-88
2022/03/20 21:16:43;;;;;;;16.27;12.18;;;;;;;;;;6162299;23;20012;-88
2022/03/20 21:19:10;;;;;;;16.38;12.00;;;;;;;;;;6161991;23;20005;-88
2022/03/20 21:21:35;;;;;;;15.73;12.57;;;;;;;;;;6188349;23;20004;-88
2022/03/20 21:24:02;;;;;;;17.73;13.95;;;;;;;;;;6188142;23;20005;-88
2022/03/20 21:26:28;;;;;;;16.20;12.38;;;;;;;;;;6188374;23;20047;-88
2022/03/20 21:28:54;;;;;;;15.27;11.95;;;;;;;;;;6161492;23;20021;-87
2022/03/20 21:31:20;;;;;;;17.48;12.57;;;;;;;;;;6188159;23;20484;-88
2022/03/20 21:33:46;;;;;;;16.92;12.63;;;;;;;;;;6161509;23;20040;-87
2022/03/20 21:36:11;;;;;;;20.10;13.20;;;;;;;;;;6161759;23;20016;-88
2022/03/20 21:38:37;;;;;;;18.10;12.55;;;;;;;;;;6161753;23;20492;-88
2022/03/20 21:41:02;;;;;;;16.55;11.80;;;;;;;;;;6162071;23;20012;-88
2022/03/20 21:43:30;;;;;;;18.88;12.32;;;;;;;;;;6188011;23;20005;-87
2022/03/20 21:45:57;;;;;;;17.92;12.40;;;;;;;;;;6187592;23;20008;-89
2022/03/20 21:48:23;;;;;;;17.75;11.60;;;;;;;;;;6161427;23;20331;-88
2022/03/20 21:50:50;;;;;;;17.05;12.60;;;;;;;;;;6161481;23;20005;-89
2022/03/20 21:53:16;;;;;;;19.85;12.27;;;;;;;;;;6161760;23;20001;-88
2022/03/20 21:55:45;;;;;;;15.75;11.43;;;;;;;;;;6187699;23;20032;-88
2022/03/20 21:58:11;;;;;;;20.52;12.57;;;;;;;;;;6161620;23;20028;-88
2022/03/20 22:00:37;;;;;;;17.83;11.10;;;;;;;;;;6161386;23;20016;-88
2022/03/20 22:03:03;;;;;;;15.50;12.05;;;;;;;;;;6161016;23;20009;-88
2022/03/20 22:05:29;;;;;;;18.50;12.15;;;;;;;;;;6161295;23;20013;-89
2022/03/20 22:07:55;;;;;;;17.45;12.20;;;;;;;;;;6161327;23;20005;-89
2022/03/20 22:10:20;;;;;;;18.67;12.48;;;;;;;;;;6161456;23;20005;-89
2022/03/20 22:12:46;;;;;;;15.93;12.52;;;;;;;;;;6136680;23;20332;-88
2022/03/20 22:15:14;;;;;;;18.80;12.57;;;;;;;;;;6161215;23;20013;-89
2022/03/20 22:17:39;;;;;;;14.23;11.32;;;;;;;;;;6187934;23;20327;-89
2022/03/20 22:20:05;;;;;;;15.68;11.60;;;;;;;;;;6187594;23;20005;-88
2022/03/20 22:22:32;;;;;;;16.40;11.88;;;;;;;;;;6187454;23;20005;-88
2022/03/20 22:25:01;;;;;;;13.45;11.15;;;;;;;;;;6161214;23;20005;-89
2022/03/20 22:27:28;;;;;;;14.05;10.73;;;;;;;;;;6161243;23;20009;-89
2022/03/20 22:29:55;;;;;;;15.95;11.73;;;;;;;;;;6160818;23;20009;-88
2022/03/20 22:32:22;;;;;;;16.50;11.60;;;;;;;;;;6161576;23;20115;-88
2022/03/20 22:37:39;;;;;;;17.98;11.50;;;;;;;;;;6161021;23;20067;-88
2022/03/20 22:37:41;;;;;;;17.27;11.93;;;;;;;;;;6187289;23;20012;-88
2022/03/20 22:40:19;;;;;;;14.90;11.32;;;;;;;;;;6160931;23;20009;-88
2022/03/20 22:42:46;;;;;;;16.00;11.93;;;;;;;;;;6161080;23;20031;-88
2022/03/20 22:45:12;;;;;;;15.57;11.82;;;;;;;;;;6161203;23;20009;-93
2022/03/20 22:47:39;;;;;;;15.48;11.07;;;;;;;;;;6187457;23;20031;-88
2022/03/20 22:50:09;;;;;;;13.85;10.98;;;;;;;;;;6161056;23;20005;-89
2022/03/20 22:52:36;;;;;;;20.35;12.43;;;;;;;;;;6160888;23;20079;-88
2022/03/20 22:55:05;;;;;;;16.73;12.18;;;;;;;;;;6160640;23;20017;-88
2022/03/20 22:57:31;;;;;;;15.93;11.82;;;;;;;;;;6161239;23;20012;-87
